createdAt,value
2023-02-17T00:02:20.781Z,102339.19
2023-02-17T00:04:48.788Z,102334.75
2023-02-17T00:07:16.686Z,102334.84
2023-02-17T00:09:44.601Z,102339.25
2023-02-17T00:12:12.579Z,102336.59
2023-02-17T00:14:41.958Z,102340.19
2023-02-17T00:17:09.881Z,102340.19
2023-02-17T00:19:37.763Z,102337.53
2023-02-17T00:22:05.662Z,102339.38
2023-02-17T00:24:33.776Z,102343.94
2023-02-17T00:27:01.679Z,102344.78
2023-02-17T00:29:29.576Z,102349.16
2023-02-17T00:31:58.914Z,102350.13
2023-02-17T00:34:28.144Z,102355.47
2023-02-17T00:36:56.063Z,102357.22
2023-02-17T00:39:23.930Z,102356.34
2023-02-17T00:41:51.846Z,102349.22
2023-02-17T00:44:20.476Z,102349.16
2023-02-17T00:46:48.391Z,102339.44
2023-02-17T00:49:19.102Z,102346.63
2023-02-17T00:51:47.092Z,102340.34
2023-02-17T00:54:15.004Z,102347.44
2023-02-17T00:56:42.979Z,102351.00
2023-02-17T00:59:10.990Z,102345.81
2023-02-17T01:01:39.030Z,102346.69
2023-02-17T01:04:06.952Z,102343.19
2023-02-17T01:06:36.903Z,102345.84
2023-02-17T01:09:05.131Z,102344.06
2023-02-17T01:11:33.394Z,102350.31
2023-02-17T01:14:01.453Z,102359.28
2023-02-17T01:16:30.178Z,102359.38
2023-02-17T01:18:58.089Z,102363.81
2023-02-17T01:21:27.113Z,102368.34
2023-02-17T01:23:57.158Z,102381.66
2023-02-17T01:26:25.880Z,102378.19
2023-02-17T01:28:53.915Z,102371.06
2023-02-17T01:31:22.157Z,102378.28
2023-02-17T01:33:50.171Z,102386.38
2023-02-17T01:36:18.863Z,102386.38
2023-02-17T01:38:47.503Z,102388.25
2023-02-17T01:41:17.418Z,102397.16
2023-02-17T01:44:00.273Z,102393.66
2023-02-17T01:46:28.217Z,102397.22
2023-02-17T01:48:56.096Z,102394.59
2023-02-17T01:51:25.052Z,102383.16
2023-02-17T01:53:57.227Z,102392.88
2023-02-17T01:56:26.467Z,102393.88
2023-02-17T01:58:56.764Z,102400.16
2023-02-17T02:01:24.756Z,102399.28
2023-02-17T02:03:53.012Z,102399.28
2023-02-17T02:06:22.532Z,102393.13
2023-02-17T02:08:52.544Z,102411.78
2023-02-17T02:11:20.450Z,102401.94
2023-02-17T02:13:52.452Z,102403.72
2023-02-17T02:16:22.908Z,102403.72
2023-02-17T02:18:54.708Z,102407.28
2023-02-17T02:21:42.137Z,102388.84
2023-02-17T02:24:42.358Z,102408.16
2023-02-17T02:27:30.607Z,102405.50
2023-02-17T02:30:10.762Z,102404.59
2023-02-17T02:33:06.069Z,102409.84
2023-02-17T02:35:37.985Z,102413.44
2023-02-17T02:38:07.826Z,102407.22
2023-02-17T02:40:37.386Z,102400.03
2023-02-17T02:43:05.336Z,102407.16
2023-02-17T02:45:35.040Z,102402.72
2023-02-17T02:48:03.222Z,102405.41
2023-02-17T02:50:39.495Z,102397.50
2023-02-17T02:53:21.877Z,102405.41
2023-02-17T02:55:53.969Z,102394.78
2023-02-17T02:58:22.825Z,102376.16
2023-02-17T03:00:54.536Z,102405.22
2023-02-17T03:03:26.042Z,102386.69
2023-02-17T03:05:57.307Z,102390.22
2023-02-17T03:08:27.743Z,102393.72
2023-02-17T03:10:55.684Z,102384.00
2023-02-17T03:13:23.596Z,102369.78
2023-02-17T03:15:51.495Z,102370.69
2023-02-17T03:18:19.346Z,102367.09
2023-02-17T03:20:49.724Z,102366.19
2023-02-17T03:23:19.064Z,102364.38
2023-02-17T03:25:47.642Z,102359.88
2023-02-17T03:28:15.570Z,102362.53
2023-02-17T03:30:43.488Z,102368.69
2023-02-17T03:33:11.340Z,102359.69
2023-02-17T03:35:39.221Z,102363.19
2023-02-17T03:38:07.095Z,102356.94
2023-02-17T03:40:36.347Z,102350.56
2023-02-17T03:43:04.237Z,102359.44
2023-02-17T03:45:32.099Z,102350.53
2023-02-17T03:48:00.014Z,102350.50
2023-02-17T03:50:28.023Z,102344.25
2023-02-17T03:52:55.895Z,102339.75
2023-02-17T03:55:23.965Z,102344.22
2023-02-17T03:57:53.275Z,102338.84
2023-02-17T04:00:21.825Z,102336.22
2023-02-17T04:02:49.710Z,102334.47
2023-02-17T04:05:17.756Z,102338.97
2023-02-17T04:07:45.627Z,102344.25
2023-02-17T04:10:16.390Z,102318.66
2023-02-17T04:12:44.297Z,102330.81
2023-02-17T04:15:13.554Z,102337.06
2023-02-17T04:17:41.415Z,102325.47
2023-02-17T04:20:10.054Z,102324.56
2023-02-17T04:22:37.967Z,102331.56
2023-02-17T04:25:06.204Z,102334.25
2023-02-17T04:27:34.094Z,102328.00
2023-02-17T04:30:02.230Z,102325.38
2023-02-17T04:32:31.984Z,102324.44
2023-02-17T04:34:59.855Z,102313.78
2023-02-17T04:37:27.828Z,102318.22
2023-02-17T04:39:55.701Z,102316.44
2023-02-17T04:42:23.556Z,102309.28
2023-02-17T04:44:51.450Z,102306.59
2023-02-17T04:47:19.393Z,102307.41
2023-02-17T04:49:48.671Z,102309.13
2023-02-17T04:52:16.608Z,102317.16
2023-02-17T04:54:44.504Z,102306.47
2023-02-17T04:57:12.426Z,102306.47
2023-02-17T04:59:40.331Z,102306.44
2023-02-17T05:02:08.230Z,102307.22
2023-02-17T05:04:36.173Z,102297.44
2023-02-17T05:07:05.406Z,102303.66
2023-02-17T05:09:33.310Z,102299.28
2023-02-17T05:12:03.057Z,102298.38
2023-02-17T05:14:30.943Z,102302.06
2023-02-17T05:16:58.816Z,102298.47
2023-02-17T05:19:26.718Z,102293.13
2023-02-17T05:21:54.619Z,102309.97
2023-02-17T05:24:23.894Z,102310.84
2023-02-17T05:26:51.880Z,102303.66
2023-02-17T05:29:19.792Z,102310.81
2023-02-17T05:31:47.783Z,102308.16
2023-02-17T05:34:15.699Z,102297.56
2023-02-17T05:36:43.564Z,102304.63
2023-02-17T05:39:11.450Z,102304.63
2023-02-17T05:41:40.759Z,102305.50
2023-02-17T05:44:08.599Z,102301.97
2023-02-17T05:46:36.533Z,102301.06
2023-02-17T05:49:04.484Z,102303.72
2023-02-17T05:51:32.330Z,102297.47
2023-02-17T05:54:00.234Z,102299.28
2023-02-17T05:56:28.153Z,102287.72
2023-02-17T05:58:57.425Z,102294.75
2023-02-17T06:01:25.311Z,102308.09
2023-02-17T06:03:53.151Z,102314.41
2023-02-17T06:06:21.046Z,102310.84
2023-02-17T06:08:48.939Z,102297.56
2023-02-17T06:11:16.791Z,102307.44
2023-02-17T06:13:44.699Z,102304.75
2023-02-17T06:16:14.083Z,102302.94
2023-02-17T06:18:42.023Z,102292.41
2023-02-17T06:21:09.872Z,102302.94
2023-02-17T06:23:37.770Z,102307.28
2023-02-17T06:26:06.080Z,102303.84
2023-02-17T06:28:35.146Z,102311.91
2023-02-17T06:31:03.229Z,102320.88
2023-02-17T06:33:32.581Z,102319.09
2023-02-17T06:36:00.435Z,102318.22
2023-02-17T06:38:28.487Z,102322.66
2023-02-17T06:40:56.414Z,102320.06
2023-02-17T06:43:24.307Z,102323.72
2023-02-17T06:45:52.228Z,102312.16
2023-02-17T06:48:20.097Z,102334.28
2023-02-17T06:50:50.088Z,102331.63
2023-02-17T06:53:17.986Z,102334.34
2023-02-17T06:55:45.867Z,102327.31
2023-02-17T06:58:13.730Z,102332.56
2023-02-17T07:00:41.630Z,102333.47
2023-02-17T07:03:09.580Z,102333.53
2023-02-17T07:05:37.540Z,102336.19
2023-02-17T07:08:07.204Z,102327.34
2023-02-17T07:10:35.150Z,102338.88
2023-02-17T07:13:03.019Z,102347.75
2023-02-17T07:15:30.964Z,102359.38
2023-02-17T07:17:58.872Z,102353.22
2023-02-17T07:20:26.764Z,102366.56
2023-02-17T07:22:54.709Z,102371.00
2023-02-17T07:25:23.950Z,102370.16
2023-02-17T07:27:51.854Z,102372.84
2023-02-17T07:30:19.858Z,102379.91
2023-02-17T07:32:47.695Z,102387.00
2023-02-17T07:35:15.565Z,102387.00
2023-02-17T07:37:43.376Z,102392.34
2023-02-17T07:40:11.999Z,102391.41
2023-02-17T07:42:41.268Z,102386.97
2023-02-17T07:45:09.893Z,102386.13
2023-02-17T07:47:37.853Z,102392.25
2023-02-17T07:50:06.790Z,102386.88
2023-02-17T07:52:34.659Z,102379.84
2023-02-17T07:55:02.575Z,102366.50
2023-02-17T07:57:30.826Z,102377.13
2023-02-17T08:00:00.159Z,102379.75
2023-02-17T08:02:28.091Z,102380.59
2023-02-17T08:04:55.934Z,102378.84
2023-02-17T08:07:23.844Z,102378.72
2023-02-17T08:10:09.188Z,102384.03
2023-02-17T08:12:54.401Z,102388.44
2023-02-17T08:15:23.933Z,102394.59
2023-02-17T08:17:53.302Z,102390.97
2023-02-17T08:20:21.503Z,102403.38
2023-02-17T08:22:49.422Z,102404.19
2023-02-17T08:25:17.406Z,102408.59
2023-02-17T08:27:45.401Z,102404.16
2023-02-17T08:30:13.955Z,102410.28
2023-02-17T08:32:43.282Z,102414.69
2023-02-17T08:35:11.269Z,102418.13
2023-02-17T08:37:39.247Z,102417.28
2023-02-17T08:40:08.568Z,102411.78
2023-02-17T08:42:36.960Z,102421.44
2023-02-17T08:45:05.342Z,102419.59
2023-02-17T08:47:33.553Z,102409.63
2023-02-17T08:50:02.932Z,102413.06
2023-02-17T08:52:30.877Z,102416.59
2023-02-17T08:54:58.790Z,102419.19
2023-02-17T08:57:26.676Z,102429.78
2023-02-17T08:59:54.680Z,102427.09
2023-02-17T09:02:22.544Z,102431.47
2023-02-17T09:04:50.534Z,102429.63
2023-02-17T09:07:19.901Z,102429.63
2023-02-17T09:09:47.899Z,102435.88
2023-02-17T09:12:16.053Z,102449.09
2023-02-17T09:14:43.971Z,102447.25
2023-02-17T09:17:11.891Z,102447.25
2023-02-17T09:19:40.909Z,102441.91
2023-02-17T09:22:08.795Z,102448.97
2023-02-17T09:24:40.114Z,102449.78
2023-02-17T09:27:08.138Z,102452.38
2023-02-17T09:29:37.547Z,102454.97
2023-02-17T09:32:08.097Z,102452.22
2023-02-17T09:34:37.118Z,102454.78
2023-02-17T09:37:05.246Z,102468.00
2023-02-17T09:39:33.396Z,102459.03
2023-02-17T09:42:02.697Z,102479.41
2023-02-17T09:44:33.859Z,102488.38
2023-02-17T09:47:03.382Z,102484.81
2023-02-17T09:49:34.241Z,102485.56
2023-02-17T09:52:04.299Z,102486.31
2023-02-17T09:54:35.625Z,102495.16
2023-02-17T09:57:05.207Z,102496.00
2023-02-17T09:59:35.517Z,102495.00
2023-02-17T10:02:06.256Z,102497.78
2023-02-17T10:04:36.535Z,102475.56
2023-02-17T10:07:08.578Z,102477.47
2023-02-17T10:09:39.616Z,102486.13
2023-02-17T10:12:10.696Z,102493.31
2023-02-17T10:14:41.276Z,102503.94
2023-02-17T10:17:11.584Z,102500.44
2023-02-17T10:19:42.587Z,102497.72
2023-02-17T10:22:14.010Z,102499.53
2023-02-17T10:24:41.985Z,102504.75
2023-02-17T10:27:23.409Z,102510.81
2023-02-17T10:29:54.860Z,102515.13
2023-02-17T10:32:24.354Z,102514.16
2023-02-17T10:34:59.597Z,102508.88
2023-02-17T10:37:31.070Z,102500.81
2023-02-17T10:40:01.464Z,102515.75
2023-02-17T10:42:32.155Z,102525.47
2023-02-17T10:45:01.682Z,102526.38
2023-02-17T10:47:29.622Z,102526.38
2023-02-17T10:49:57.727Z,102520.13
2023-02-17T10:52:37.801Z,102522.84
2023-02-17T10:55:21.927Z,102529.13
2023-02-17T10:57:53.814Z,102527.41
2023-02-17T11:00:22.611Z,102527.41
2023-02-17T11:02:51.864Z,102527.53
2023-02-17T11:05:24.888Z,102530.13
2023-02-17T11:07:57.064Z,102548.09
2023-02-17T11:10:26.997Z,102551.78
2023-02-17T11:12:58.153Z,102542.94
2023-02-17T11:15:28.368Z,102541.19
2023-02-17T11:17:56.653Z,102557.34
2023-02-17T11:20:33.520Z,102557.41
2023-02-17T11:23:04.967Z,102562.00
2023-02-17T11:25:33.670Z,102554.22
2023-02-17T11:28:03.737Z,102571.72
2023-02-17T11:30:32.948Z,102557.59
2023-02-17T11:33:01.267Z,102562.75
2023-02-17T11:35:45.079Z,102547.53
2023-02-17T11:38:14.400Z,102556.38
2023-02-17T11:40:42.387Z,102554.53
2023-02-17T11:43:19.114Z,102562.44
2023-02-17T11:46:00.995Z,102539.19
2023-02-17T11:49:07.689Z,102542.59
2023-02-17T11:51:42.375Z,102549.69
2023-02-17T11:54:16.490Z,102546.94
2023-02-17T11:56:47.206Z,102556.66
2023-02-17T11:59:32.170Z,102553.94
2023-02-17T12:02:15.739Z,102532.75
2023-02-17T12:04:46.390Z,102546.81
2023-02-17T12:07:22.828Z,102560.88
2023-02-17T12:09:54.561Z,102556.38
2023-02-17T12:12:27.836Z,102559.78
2023-02-17T12:15:03.281Z,102553.59
2023-02-17T12:17:36.974Z,102566.91
2023-02-17T12:20:09.508Z,102552.63
2023-02-17T12:22:41.498Z,102556.00
2023-02-17T12:25:25.781Z,102550.66
2023-02-17T12:28:06.722Z,102547.97
2023-02-17T12:30:41.592Z,102521.50
2023-02-17T12:33:26.785Z,102531.88
2023-02-17T12:35:55.698Z,102531.91
2023-02-17T12:38:26.203Z,102529.19
2023-02-17T12:40:56.497Z,102528.28
2023-02-17T12:43:26.672Z,102530.72
2023-02-17T12:45:57.730Z,102536.91
2023-02-17T12:48:28.063Z,102536.94
2023-02-17T12:50:57.755Z,102527.25
2023-02-17T12:53:28.140Z,102522.78
2023-02-17T12:55:58.013Z,102515.63
2023-02-17T12:58:26.637Z,102504.06
2023-02-17T13:00:58.527Z,102511.13
2023-02-17T13:03:26.456Z,102500.50
2023-02-17T13:05:58.385Z,102504.13
2023-02-17T13:08:28.212Z,102502.28
2023-02-17T13:11:01.798Z,102479.38
2023-02-17T13:13:30.717Z,102489.84
2023-02-17T13:16:08.330Z,102491.50
2023-02-17T13:18:37.045Z,102494.94
2023-02-17T13:21:17.152Z,102504.59
2023-02-17T13:23:45.938Z,102501.09
2023-02-17T13:26:28.014Z,102487.72
2023-02-17T13:29:07.239Z,102500.19
2023-02-17T13:31:45.643Z,102489.41
2023-02-17T13:34:23.886Z,102491.34
2023-02-17T13:36:51.772Z,102479.81
2023-02-17T13:39:32.774Z,102487.94
2023-02-17T13:42:01.180Z,102477.44
2023-02-17T13:44:29.889Z,102477.53
2023-02-17T13:47:01.275Z,102487.41
2023-02-17T13:49:32.892Z,102473.22
2023-02-17T13:52:11.960Z,102477.69
2023-02-17T13:54:42.002Z,102482.19
2023-02-17T13:57:26.352Z,102477.88
2023-02-17T13:59:54.389Z,102462.06
2023-02-17T14:02:35.510Z,102467.03
2023-02-17T14:05:10.932Z,102469.84
2023-02-17T14:07:39.366Z,102458.34
2023-02-17T14:10:20.638Z,102468.22
2023-02-17T14:12:49.907Z,102460.38
2023-02-17T14:15:18.276Z,102467.53
2023-02-17T14:17:47.583Z,102464.94
2023-02-17T14:20:32.705Z,102472.97
2023-02-17T14:23:04.221Z,102467.72
2023-02-17T14:25:33.738Z,102458.69
2023-02-17T14:28:01.593Z,102462.19
2023-02-17T14:30:30.915Z,102463.78
2023-02-17T14:33:19.858Z,102460.19
2023-02-17T14:35:51.511Z,102452.06
2023-02-17T14:38:23.059Z,102456.47
2023-02-17T14:40:50.992Z,102467.31
2023-02-17T14:43:18.888Z,102462.06
2023-02-17T14:45:46.871Z,102460.53
2023-02-17T14:48:16.330Z,102448.94
2023-02-17T14:50:44.282Z,102451.75
2023-02-17T14:53:14.429Z,102442.19
2023-02-17T14:55:45.455Z,102444.91
2023-02-17T14:58:15.500Z,102450.41
2023-02-17T15:00:43.383Z,102455.78
2023-02-17T15:03:11.494Z,102456.72
2023-02-17T15:05:40.787Z,102444.31
2023-02-17T15:08:10.818Z,102448.78
2023-02-17T15:10:39.929Z,102444.25
2023-02-17T15:13:07.918Z,102423.19
2023-02-17T15:15:39.254Z,102461.16
2023-02-17T15:18:07.197Z,102460.28
2023-02-17T15:20:35.126Z,102457.75
2023-02-17T15:23:04.408Z,102467.63
2023-02-17T15:25:32.541Z,102458.75
2023-02-17T15:28:00.438Z,102457.03
2023-02-17T15:30:28.630Z,102436.66
2023-02-17T15:32:56.571Z,102454.38
2023-02-17T15:35:25.734Z,102461.44
2023-02-17T15:37:53.678Z,102456.97
2023-02-17T15:40:24.010Z,102451.69
2023-02-17T15:42:54.326Z,102450.81
2023-02-17T15:45:22.349Z,102459.78
2023-02-17T15:47:50.664Z,102455.34
2023-02-17T15:50:20.700Z,102461.56
2023-02-17T15:52:49.049Z,102459.88
2023-02-17T15:55:17.228Z,102474.16
2023-02-17T15:57:48.013Z,102458.22
2023-02-17T16:00:24.106Z,102446.06
2023-02-17T16:02:52.176Z,102456.69
2023-02-17T16:05:21.351Z,102457.34
2023-02-17T16:07:49.276Z,102463.63
2023-02-17T16:10:18.526Z,102473.41
2023-02-17T16:12:47.812Z,102468.13
2023-02-17T16:15:16.886Z,102465.47
2023-02-17T16:17:44.806Z,102456.63
2023-02-17T16:20:15.852Z,102469.16
2023-02-17T16:22:44.394Z,102455.88
2023-02-17T16:25:12.336Z,102462.13
2023-02-17T16:27:40.279Z,102459.44
2023-02-17T16:30:21.113Z,102468.41
2023-02-17T16:32:49.120Z,102472.03
2023-02-17T16:35:17.941Z,102463.41
2023-02-17T16:37:50.316Z,102476.56
2023-02-17T16:40:18.843Z,102488.22
2023-02-17T16:42:46.761Z,102482.88
2023-02-17T16:45:20.157Z,102483.81
2023-02-17T16:47:49.539Z,102495.41
2023-02-17T16:50:26.645Z,102482.09
2023-02-17T16:52:55.237Z,102493.63
2023-02-17T16:55:24.558Z,102487.44
2023-02-17T16:57:52.484Z,102490.13
2023-02-17T17:00:23.087Z,102485.78
2023-02-17T17:02:51.274Z,102507.06
2023-02-17T17:05:19.528Z,102506.19
2023-02-17T17:07:47.534Z,102501.75
2023-02-17T17:10:17.487Z,102503.56
2023-02-17T17:12:45.570Z,102512.50
2023-02-17T17:15:13.672Z,102503.53
2023-02-17T17:17:44.187Z,102510.72
2023-02-17T17:20:14.938Z,102509.81
2023-02-17T17:22:42.887Z,102513.44
2023-02-17T17:25:10.829Z,102511.63
2023-02-17T17:27:38.745Z,102510.78
2023-02-17T17:30:07.573Z,102502.00
2023-02-17T17:32:35.498Z,102510.84
2023-02-17T17:35:04.850Z,102521.47
2023-02-17T17:37:32.740Z,102518.84
2023-02-17T17:40:00.768Z,102531.31
2023-02-17T17:42:28.671Z,102527.81
2023-02-17T17:44:56.532Z,102529.53
2023-02-17T17:47:29.999Z,102530.56
2023-02-17T17:49:58.498Z,102539.28
2023-02-17T17:52:27.842Z,102541.94
2023-02-17T17:54:55.728Z,102539.28
2023-02-17T17:57:23.620Z,102539.28
2023-02-17T17:59:51.617Z,102534.00
2023-02-17T18:02:19.496Z,102546.47
2023-02-17T18:04:47.826Z,102543.84
2023-02-17T18:07:15.843Z,102554.53
2023-02-17T18:09:45.149Z,102547.50
2023-02-17T18:12:13.779Z,102544.84
2023-02-17T18:14:41.709Z,102550.13
2023-02-17T18:17:09.691Z,102551.13
2023-02-17T18:19:37.634Z,102545.81
2023-02-17T18:22:05.557Z,102546.66
2023-02-17T18:24:33.866Z,102550.31
2023-02-17T18:27:03.281Z,102544.97
2023-02-17T18:29:31.410Z,102551.13
2023-02-17T18:32:00.137Z,102552.88
2023-02-17T18:34:28.107Z,102561.81
2023-02-17T18:36:56.030Z,102564.44
2023-02-17T18:39:23.883Z,102562.66
2023-02-17T18:41:51.737Z,102569.84
2023-02-17T18:44:21.026Z,102561.94
2023-02-17T18:46:48.990Z,102567.16
2023-02-17T18:49:16.839Z,102575.13
2023-02-17T18:51:44.797Z,102571.56
2023-02-17T18:54:12.948Z,102570.63
2023-02-17T18:56:40.833Z,102572.41
2023-02-17T18:59:08.707Z,102576.84
2023-02-17T19:01:39.762Z,102567.28
2023-02-17T19:04:09.617Z,102586.69
2023-02-17T19:06:37.573Z,102591.09
2023-02-17T19:09:05.464Z,102594.66
2023-02-17T19:11:33.590Z,102606.16
2023-02-17T19:14:01.663Z,102597.38
2023-02-17T19:16:30.489Z,102608.97
2023-02-17T19:18:59.837Z,102596.50
2023-02-17T19:21:27.754Z,102606.28
2023-02-17T19:23:55.761Z,102595.53
2023-02-17T19:26:23.736Z,102585.88
2023-02-17T19:28:51.640Z,102590.25
2023-02-17T19:31:20.513Z,102587.59
2023-02-17T19:33:48.639Z,102591.16
2023-02-17T19:36:19.125Z,102592.94
2023-02-17T19:38:47.178Z,102601.00
2023-02-17T19:41:15.364Z,102597.44
2023-02-17T19:43:43.413Z,102601.81
2023-02-17T19:46:12.375Z,102576.31
2023-02-17T19:48:40.315Z,102605.38
2023-02-17T19:51:08.983Z,102596.50
2023-02-17T19:53:38.230Z,102528.09
2023-02-17T19:56:11.951Z,102601.78
2023-02-17T19:58:40.512Z,102598.31
2023-02-17T20:01:09.087Z,102598.28
2023-02-17T20:03:37.044Z,102600.88
2023-02-17T20:06:09.660Z,102554.44
2023-02-17T20:08:39.071Z,102601.81
2023-02-17T20:11:07.967Z,102606.28
2023-02-17T20:13:45.217Z,102600.13
2023-02-17T20:16:14.158Z,102604.50
2023-02-17T20:18:42.776Z,102608.97
2023-02-17T20:21:10.755Z,102604.56
2023-02-17T20:23:39.927Z,102608.06
2023-02-17T20:26:08.493Z,102601.03
2023-02-17T20:28:36.670Z,102600.06
2023-02-17T20:31:04.616Z,102610.75
2023-02-17T20:33:32.515Z,102603.72
2023-02-17T20:36:00.696Z,102607.22
2023-02-17T20:38:28.620Z,102606.44
2023-02-17T20:40:57.860Z,102601.16
2023-02-17T20:43:25.663Z,102606.44
2023-02-17T20:45:53.653Z,102604.69
2023-02-17T20:48:21.831Z,102608.34
2023-02-17T20:50:50.042Z,102594.22
2023-02-17T20:53:17.925Z,102608.34
2023-02-17T20:55:46.175Z,102603.94
2023-02-17T20:58:15.355Z,102612.81
2023-02-17T21:00:43.285Z,102605.78
2023-02-17T21:03:11.273Z,102604.00
2023-02-17T21:05:39.211Z,102586.38
2023-02-17T21:08:07.185Z,102596.84
2023-02-17T21:10:35.058Z,102611.19
2023-02-17T21:13:02.940Z,102612.84
2023-02-17T21:15:32.177Z,102614.75
2023-02-17T21:18:00.066Z,102564.00
2023-02-17T21:20:28.032Z,102620.19
2023-02-17T21:22:55.909Z,102620.19
2023-02-17T21:25:23.840Z,102620.19
2023-02-17T21:27:51.780Z,102616.63
2023-02-17T21:30:20.004Z,102628.19
2023-02-17T21:32:49.284Z,102620.19
2023-02-17T21:35:17.338Z,102621.97
2023-02-17T21:37:45.219Z,102616.69
2023-02-17T21:40:13.643Z,102622.88
2023-02-17T21:42:59.160Z,102604.19
2023-02-17T21:45:27.179Z,102599.00
2023-02-17T21:47:56.450Z,102612.25
2023-02-17T21:50:24.565Z,102607.78
2023-02-17T21:52:53.174Z,102609.56
2023-02-17T21:55:21.131Z,102591.94
2023-02-17T21:57:49.056Z,102598.31
2023-02-17T22:00:17.938Z,102598.50
2023-02-17T22:02:45.920Z,102594.09
2023-02-17T22:05:15.198Z,102602.09
2023-02-17T22:07:43.070Z,102605.59
2023-02-17T22:10:11.335Z,102610.00
2023-02-17T22:12:39.261Z,102609.06
2023-02-17T22:15:07.818Z,102624.09
2023-02-17T22:17:35.792Z,102615.16
2023-02-17T22:20:04.714Z,102623.97
2023-02-17T22:22:34.019Z,102616.91
2023-02-17T22:25:01.934Z,102610.63
2023-02-17T22:27:29.830Z,102610.63
2023-02-17T22:29:57.875Z,102612.44
2023-02-17T22:32:25.934Z,102614.97
2023-02-17T22:34:53.908Z,102604.28
2023-02-17T22:37:21.902Z,102610.38
2023-02-17T22:39:53.229Z,102605.00
2023-02-17T22:42:21.156Z,102611.22
2023-02-17T22:44:49.209Z,102616.56
2023-02-17T22:47:17.149Z,102613.81
2023-02-17T22:49:45.069Z,102602.16
2023-02-17T22:52:12.933Z,102602.13
2023-02-17T22:54:41.037Z,102605.63
2023-02-17T22:57:10.314Z,102605.66
2023-02-17T22:59:38.205Z,102595.88
2023-02-17T23:02:06.068Z,102594.06
2023-02-17T23:04:33.986Z,102600.28
2023-02-17T23:07:01.922Z,102599.31
2023-02-17T23:09:29.805Z,102599.22
2023-02-17T23:11:58.464Z,102600.19
2023-02-17T23:14:29.186Z,102601.81
2023-02-17T23:16:59.195Z,102597.38
2023-02-17T23:19:27.163Z,102591.16
2023-02-17T23:21:56.761Z,102592.91
2023-02-17T23:24:24.943Z,102587.56
2023-02-17T23:26:52.830Z,102586.63
2023-02-17T23:29:20.745Z,102582.19
2023-02-17T23:31:50.115Z,102581.25
2023-02-17T23:34:18.064Z,102584.78
2023-02-17T23:36:46.185Z,102578.56
2023-02-17T23:39:14.081Z,102583.03
2023-02-17T23:41:41.962Z,102591.91
2023-02-17T23:44:10.843Z,102582.13
2023-02-17T23:46:39.120Z,102586.53
2023-02-17T23:49:08.392Z,102580.28
2023-02-17T23:51:36.260Z,102580.28
2023-02-17T23:54:04.322Z,102577.59
2023-02-17T23:56:32.994Z,102576.69
2023-02-17T23:59:01.271Z,102575.84
